sensor_id;sensor_type;location;lat;lon;timestamp;pressure;altitude;pressure_sealevel;temperature;humidity
11878;BME280;5998;42.676;23.268;2022-07-24T00:01:57;94914.75;;;23.13;100.00
11878;BME280;5998;42.676;23.268;2022-07-24T00:04:24;94913.53;;;23.14;100.00
11878;BME280;5998;42.676;23.268;2022-07-24T00:06:51;94911.22;;;23.12;100.00
11878;BME280;5998;42.676;23.268;2022-07-24T00:09:17;94904.34;;;23.01;100.00
11878;BME280;5998;42.676;23.268;2022-07-24T00:11:44;94902.13;;;22.92;100.00
11878;BME280;5998;42.676;23.268;2022-07-24T00:14:11;94903.38;;;22.87;100.00
11878;BME280;5998;42.676;23.268;2022-07-24T00:16:39;94907.66;;;22.88;100.00
11878;BME280;5998;42.676;23.268;2022-07-24T00:19:06;94910.88;;;22.83;100.00
11878;BME280;5998;42.676;23.268;2022-07-24T00:21:34;94899.19;;;22.79;100.00
11878;BME280;5998;42.676;23.268;2022-07-24T00:24:01;94903.72;;;22.89;100.00
11878;BME280;5998;42.676;23.268;2022-07-24T00:26:28;94902.59;;;22.87;100.00
11878;BME280;5998;42.676;23.268;2022-07-24T00:28:55;94904.69;;;23.03;100.00
11878;BME280;5998;42.676;23.268;2022-07-24T00:31:22;94900.41;;;23.02;99.28
11878;BME280;5998;42.676;23.268;2022-07-24T00:33:50;94906.72;;;22.99;100.00
11878;BME280;5998;42.676;23.268;2022-07-24T00:36:17;94899.41;;;22.88;100.00
11878;BME280;5998;42.676;23.268;2022-07-24T00:38:44;94885.06;;;22.77;100.00
11878;BME280;5998;42.676;23.268;2022-07-24T00:41:11;94897.19;;;22.80;98.92
11878;BME280;5998;42.676;23.268;2022-07-24T00:44:03;94898.81;;;22.77;99.41
11878;BME280;5998;42.676;23.268;2022-07-24T00:46:31;94901.09;;;22.82;99.75
11878;BME280;5998;42.676;23.268;2022-07-24T00:48:59;94907.78;;;22.81;99.20
11878;BME280;5998;42.676;23.268;2022-07-24T00:51:27;94896.19;;;22.70;99.04
11878;BME280;5998;42.676;23.268;2022-07-24T00:53:54;94902.44;;;22.71;97.29
11878;BME280;5998;42.676;23.268;2022-07-24T00:56:22;94901.78;;;22.63;97.89
11878;BME280;5998;42.676;23.268;2022-07-24T00:58:49;94904.53;;;22.63;97.39
11878;BME280;5998;42.676;23.268;2022-07-24T01:01:16;94906.06;;;22.64;96.92
11878;BME280;5998;42.676;23.268;2022-07-24T01:03:44;94891.81;;;22.73;97.84
11878;BME280;5998;42.676;23.268;2022-07-24T01:06:12;94901.25;;;22.72;98.66
11878;BME280;5998;42.676;23.268;2022-07-24T01:08:40;94895.44;;;22.66;100.00
11878;BME280;5998;42.676;23.268;2022-07-24T01:11:09;94896.59;;;22.69;99.05
11878;BME280;5998;42.676;23.268;2022-07-24T01:13:37;94898.56;;;22.68;99.14
11878;BME280;5998;42.676;23.268;2022-07-24T01:16:04;94905.06;;;22.51;100.00
11878;BME280;5998;42.676;23.268;2022-07-24T01:18:31;94900.69;;;22.54;100.00
11878;BME280;5998;42.676;23.268;2022-07-24T01:21:00;94897.28;;;22.46;100.00
11878;BME280;5998;42.676;23.268;2022-07-24T01:23:27;94903.63;;;22.40;100.00
11878;BME280;5998;42.676;23.268;2022-07-24T01:25:54;94887.22;;;22.36;100.00
11878;BME280;5998;42.676;23.268;2022-07-24T01:28:21;94901.03;;;22.29;100.00
11878;BME280;5998;42.676;23.268;2022-07-24T01:30:47;94894.44;;;22.23;100.00
11878;BME280;5998;42.676;23.268;2022-07-24T01:33:14;94877.81;;;22.07;100.00
11878;BME280;5998;42.676;23.268;2022-07-24T01:35:42;94896.41;;;22.22;100.00
11878;BME280;5998;42.676;23.268;2022-07-24T01:38:10;94888.28;;;22.15;100.00
11878;BME280;5998;42.676;23.268;2022-07-24T01:40:38;94887.16;;;22.13;100.00
11878;BME280;5998;42.676;23.268;2022-07-24T01:43:05;94854.13;;;21.90;100.00
11878;BME280;5998;42.676;23.268;2022-07-24T01:45:33;94887.22;;;22.06;100.00
11878;BME280;5998;42.676;23.268;2022-07-24T01:48:00;94881.84;;;21.99;100.00
11878;BME280;5998;42.676;23.268;2022-07-24T01:50:27;94887.41;;;21.92;100.00
11878;BME280;5998;42.676;23.268;2022-07-24T01:52:54;94880.47;;;21.80;100.00
11878;BME280;5998;42.676;23.268;2022-07-24T01:55:22;94845.25;;;21.45;100.00
11878;BME280;5998;42.676;23.268;2022-07-24T01:57:49;94881.69;;;21.75;100.00
11878;BME280;5998;42.676;23.268;2022-07-24T02:00:16;94879.84;;;21.65;100.00
11878;BME280;5998;42.676;23.268;2022-07-24T02:02:44;94876.06;;;21.56;100.00
11878;BME280;5998;42.676;23.268;2022-07-24T02:05:12;94883.00;;;21.64;100.00
11878;BME280;5998;42.676;23.268;2022-07-24T02:07:40;94878.38;;;21.57;100.00
11878;BME280;5998;42.676;23.268;2022-07-24T02:10:08;94874.47;;;21.58;100.00
11878;BME280;5998;42.676;23.268;2022-07-24T02:12:38;94835.25;;;21.28;100.00
11878;BME280;5998;42.676;23.268;2022-07-24T02:15:06;94872.19;;;21.50;100.00
11878;BME280;5998;42.676;23.268;2022-07-24T02:17:33;94869.84;;;21.48;100.00
11878;BME280;5998;42.676;23.268;2022-07-24T02:20:00;94880.81;;;21.48;100.00
11878;BME280;5998;42.676;23.268;2022-07-24T02:22:27;94878.03;;;21.52;100.00
11878;BME280;5998;42.676;23.268;2022-07-24T02:24:54;94873.31;;;21.56;100.00
11878;BME280;5998;42.676;23.268;2022-07-24T02:27:21;94832.25;;;21.15;100.00
11878;BME280;5998;42.676;23.268;2022-07-24T02:29:50;94865.28;;;21.35;100.00
11878;BME280;5998;42.676;23.268;2022-07-24T02:32:17;94884.88;;;21.33;100.00
11878;BME280;5998;42.676;23.268;2022-07-24T02:34:44;94832.78;;;20.96;100.00
11878;BME280;5998;42.676;23.268;2022-07-24T02:37:11;94876.69;;;21.33;100.00
11878;BME280;5998;42.676;23.268;2022-07-24T02:39:38;94880.94;;;21.38;100.00
11878;BME280;5998;42.676;23.268;2022-07-24T02:42:05;94884.44;;;21.38;100.00
11878;BME280;5998;42.676;23.268;2022-07-24T02:44:32;94860.47;;;21.12;100.00
11878;BME280;5998;42.676;23.268;2022-07-24T02:47:00;94885.28;;;21.32;100.00
11878;BME280;5998;42.676;23.268;2022-07-24T02:49:27;94882.59;;;21.28;100.00
11878;BME280;5998;42.676;23.268;2022-07-24T02:51:54;94880.59;;;21.32;100.00
11878;BME280;5998;42.676;23.268;2022-07-24T02:54:22;94882.19;;;21.26;100.00
11878;BME280;5998;42.676;23.268;2022-07-24T02:56:49;94880.59;;;21.32;100.00
11878;BME280;5998;42.676;23.268;2022-07-24T02:59:16;94878.19;;;21.38;100.00
11878;BME280;5998;42.676;23.268;2022-07-24T03:01:43;94880.13;;;21.37;100.00
11878;BME280;5998;42.676;23.268;2022-07-24T03:04:12;94886.13;;;21.29;100.00
11878;BME280;5998;42.676;23.268;2022-07-24T03:06:38;94877.59;;;21.20;100.00
11878;BME280;5998;42.676;23.268;2022-07-24T03:09:05;94885.00;;;21.23;100.00
11878;BME280;5998;42.676;23.268;2022-07-24T03:11:32;94886.59;;;21.20;100.00
11878;BME280;5998;42.676;23.268;2022-07-24T03:13:59;94888.53;;;21.20;100.00
11878;BME280;5998;42.676;23.268;2022-07-24T03:16:26;94851.13;;;20.99;100.00
11878;BME280;5998;42.676;23.268;2022-07-24T03:18:53;94883.06;;;21.20;100.00
11878;BME280;5998;42.676;23.268;2022-07-24T03:21:21;94893.22;;;21.23;100.00
11878;BME280;5998;42.676;23.268;2022-07-24T03:23:48;94888.28;;;21.03;100.00
11878;BME280;5998;42.676;23.268;2022-07-24T03:26:15;94903.06;;;21.13;100.00
11878;BME280;5998;42.676;23.268;2022-07-24T03:28:42;94902.34;;;21.09;100.00
11878;BME280;5998;42.676;23.268;2022-07-24T03:31:09;94886.69;;;21.06;100.00
11878;BME280;5998;42.676;23.268;2022-07-24T03:33:36;94876.13;;;21.08;100.00
11878;BME280;5998;42.676;23.268;2022-07-24T03:36:03;94886.19;;;21.18;100.00
11878;BME280;5998;42.676;23.268;2022-07-24T03:38:32;94880.66;;;21.25;100.00
11878;BME280;5998;42.676;23.268;2022-07-24T03:40:59;94887.53;;;21.44;100.00
11878;BME280;5998;42.676;23.268;2022-07-24T03:43:26;94895.91;;;21.26;100.00
11878;BME280;5998;42.676;23.268;2022-07-24T03:45:53;94885.63;;;21.37;100.00
11878;BME280;5998;42.676;23.268;2022-07-24T03:48:20;94889.13;;;21.41;100.00
11878;BME280;5998;42.676;23.268;2022-07-24T03:50:47;94879.38;;;21.37;100.00
11878;BME280;5998;42.676;23.268;2022-07-24T03:53:14;94877.22;;;21.55;100.00
11878;BME280;5998;42.676;23.268;2022-07-24T03:55:42;94877.81;;;21.73;100.00
11878;BME280;5998;42.676;23.268;2022-07-24T03:58:09;94881.13;;;21.95;100.00
11878;BME280;5998;42.676;23.268;2022-07-24T04:00:36;94877.78;;;22.10;100.00
11878;BME280;5998;42.676;23.268;2022-07-24T04:03:03;94872.47;;;22.26;100.00
11878;BME280;5998;42.676;23.268;2022-07-24T04:05:30;94876.94;;;22.44;100.00
11878;BME280;5998;42.676;23.268;2022-07-24T04:07:56;94884.31;;;22.20;100.00
11878;BME280;5998;42.676;23.268;2022-07-24T04:10:23;94882.81;;;22.42;100.00
11878;BME280;5998;42.676;23.268;2022-07-24T04:12:52;94884.91;;;22.61;100.00
11878;BME280;5998;42.676;23.268;2022-07-24T04:15:19;94884.47;;;22.66;100.00
11878;BME280;5998;42.676;23.268;2022-07-24T04:17:46;94885.91;;;22.74;100.00
11878;BME280;5998;42.676;23.268;2022-07-24T04:20:13;94875.66;;;22.78;100.00
11878;BME280;5998;42.676;23.268;2022-07-24T04:22:40;94889.34;;;22.82;100.00
11878;BME280;5998;42.676;23.268;2022-07-24T04:25:07;94884.19;;;22.84;100.00
11878;BME280;5998;42.676;23.268;2022-07-24T04:27:34;94890.31;;;22.95;100.00
11878;BME280;5998;42.676;23.268;2022-07-24T04:30:04;94894.34;;;22.87;100.00
11878;BME280;5998;42.676;23.268;2022-07-24T04:32:31;94843.09;;;22.50;100.00
11878;BME280;5998;42.676;23.268;2022-07-24T04:34:58;94894.31;;;22.90;100.00
11878;BME280;5998;42.676;23.268;2022-07-24T04:37:25;94894.19;;;22.98;100.00
11878;BME280;5998;42.676;23.268;2022-07-24T04:39:52;94872.22;;;22.98;100.00
11878;BME280;5998;42.676;23.268;2022-07-24T04:42:19;94895.09;;;23.14;100.00
11878;BME280;5998;42.676;23.268;2022-07-24T04:44:46;94892.56;;;23.00;100.00
11878;BME280;5998;42.676;23.268;2022-07-24T04:47:15;94899.41;;;22.88;100.00
11878;BME280;5998;42.676;23.268;2022-07-24T04:49:41;94897.94;;;22.84;100.00
11878;BME280;5998;42.676;23.268;2022-07-24T04:52:08;94890.25;;;22.99;100.00
11878;BME280;5998;42.676;23.268;2022-07-24T04:54:35;94895.09;;;23.14;100.00
11878;BME280;5998;42.676;23.268;2022-07-24T04:57:02;94897.06;;;23.37;100.00
11878;BME280;5998;42.676;23.268;2022-07-24T04:59:29;94828.66;;;23.19;100.00
11878;BME280;5998;42.676;23.268;2022-07-24T05:01:56;94894.25;;;23.83;100.00
11878;BME280;5998;42.676;23.268;2022-07-24T05:04:24;94863.66;;;23.81;100.00
11878;BME280;5998;42.676;23.268;2022-07-24T05:06:51;94887.09;;;24.09;97.62
11878;BME280;5998;42.676;23.268;2022-07-24T05:09:18;94893.28;;;24.33;95.19
11878;BME280;5998;42.676;23.268;2022-07-24T05:11:45;94895.91;;;24.56;94.81
11878;BME280;5998;42.676;23.268;2022-07-24T05:14:12;94880.63;;;24.71;93.59
11878;BME280;5998;42.676;23.268;2022-07-24T05:16:39;94904.78;;;24.99;89.48
11878;BME280;5998;42.676;23.268;2022-07-24T05:19:06;94910.13;;;25.22;91.79
11878;BME280;5998;42.676;23.268;2022-07-24T05:21:34;94912.28;;;25.47;87.98
11878;BME280;5998;42.676;23.268;2022-07-24T05:24:01;94912.63;;;25.65;82.22
11878;BME280;5998;42.676;23.268;2022-07-24T05:26:28;94912.78;;;25.42;84.92
11878;BME280;5998;42.676;23.268;2022-07-24T05:28:57;94907.19;;;25.46;86.99
11878;BME280;5998;42.676;23.268;2022-07-24T05:31:24;94902.00;;;25.64;84.03
11878;BME280;5998;42.676;23.268;2022-07-24T05:33:51;94907.56;;;25.93;82.24
11878;BME280;5998;42.676;23.268;2022-07-24T05:36:18;94901.47;;;26.14;83.91
11878;BME280;5998;42.676;23.268;2022-07-24T05:38:46;94908.09;;;26.16;81.57
11878;BME280;5998;42.676;23.268;2022-07-24T05:41:13;94900.59;;;26.29;83.39
11878;BME280;5998;42.676;23.268;2022-07-24T05:43:40;94901.94;;;26.37;81.72
11878;BME280;5998;42.676;23.268;2022-07-24T05:46:07;94891.41;;;26.61;84.38
11878;BME280;5998;42.676;23.268;2022-07-24T05:48:34;94900.56;;;26.71;82.80
11878;BME280;5998;42.676;23.268;2022-07-24T05:51:01;94896.94;;;26.86;77.01
11878;BME280;5998;42.676;23.268;2022-07-24T05:53:28;94871.41;;;26.70;79.37
11878;BME280;5998;42.676;23.268;2022-07-24T05:55:56;94846.94;;;26.43;78.87
11878;BME280;5998;42.676;23.268;2022-07-24T05:58:23;94898.38;;;27.04;79.24
11878;BME280;5998;42.676;23.268;2022-07-24T06:00:50;94886.28;;;27.48;81.53
11878;BME280;5998;42.676;23.268;2022-07-24T06:03:17;94876.34;;;27.72;75.18
11878;BME280;5998;42.676;23.268;2022-07-24T06:05:43;94881.69;;;27.88;70.52
11878;BME280;5998;42.676;23.268;2022-07-24T06:08:10;94892.38;;;28.12;74.06
11878;BME280;5998;42.676;23.268;2022-07-24T06:10:37;94870.03;;;28.06;67.87
11878;BME280;5998;42.676;23.268;2022-07-24T06:13:05;94881.22;;;28.24;68.27
11878;BME280;5998;42.676;23.268;2022-07-24T06:15:32;94895.38;;;28.48;67.45
11878;BME280;5998;42.676;23.268;2022-07-24T06:17:59;94855.75;;;28.38;65.46
11878;BME280;5998;42.676;23.268;2022-07-24T06:20:26;94856.78;;;28.53;66.42
11878;BME280;5998;42.676;23.268;2022-07-24T06:22:53;94897.88;;;28.55;63.91
11878;BME280;5998;42.676;23.268;2022-07-24T06:25:20;94855.78;;;28.17;66.44
11878;BME280;5998;42.676;23.268;2022-07-24T06:27:48;94889.09;;;28.26;69.53
11878;BME280;5998;42.676;23.268;2022-07-24T06:30:19;94879.56;;;28.57;67.73
11878;BME280;5998;42.676;23.268;2022-07-24T06:32:47;94873.75;;;28.95;69.35
11878;BME280;5998;42.676;23.268;2022-07-24T06:35:14;94878.91;;;29.06;64.00
11878;BME280;5998;42.676;23.268;2022-07-24T06:37:41;94863.09;;;28.85;62.83
11878;BME280;5998;42.676;23.268;2022-07-24T06:40:09;94874.63;;;28.52;64.86
11878;BME280;5998;42.676;23.268;2022-07-24T06:42:36;94867.72;;;28.88;77.53
11878;BME280;5998;42.676;23.268;2022-07-24T06:45:04;94872.25;;;29.03;64.45
11878;BME280;5998;42.676;23.268;2022-07-24T06:47:32;94866.63;;;28.85;68.01
11878;BME280;5998;42.676;23.268;2022-07-24T06:49:59;94864.06;;;28.38;65.68
11878;BME280;5998;42.676;23.268;2022-07-24T06:52:26;94865.03;;;28.44;70.08
11878;BME280;5998;42.676;23.268;2022-07-24T06:54:52;94862.91;;;28.70;67.73
11878;BME280;5998;42.676;23.268;2022-07-24T06:57:19;94865.00;;;28.97;70.09
11878;BME280;5998;42.676;23.268;2022-07-24T06:59:46;94840.41;;;29.17;68.65
11878;BME280;5998;42.676;23.268;2022-07-24T07:02:12;94861.34;;;29.85;66.25
11878;BME280;5998;42.676;23.268;2022-07-24T07:04:40;94853.28;;;30.14;67.79
11878;BME280;5998;42.676;23.268;2022-07-24T07:07:07;94858.44;;;30.67;61.36
11878;BME280;5998;42.676;23.268;2022-07-24T07:09:34;94862.53;;;30.99;60.19
11878;BME280;5998;42.676;23.268;2022-07-24T07:12:02;94854.34;;;31.28;60.52
11878;BME280;5998;42.676;23.268;2022-07-24T07:14:29;94863.50;;;31.43;59.49
11878;BME280;5998;42.676;23.268;2022-07-24T07:16:56;94853.59;;;31.75;56.27
11878;BME280;5998;42.676;23.268;2022-07-24T07:19:23;94862.44;;;31.17;52.25
11878;BME280;5998;42.676;23.268;2022-07-24T07:21:51;94858.53;;;30.39;50.08
11878;BME280;5998;42.676;23.268;2022-07-24T07:24:18;94857.28;;;30.22;51.34
11878;BME280;5998;42.676;23.268;2022-07-24T07:26:45;94851.13;;;30.36;50.79
11878;BME280;5998;42.676;23.268;2022-07-24T07:29:12;94855.59;;;30.85;60.34
11878;BME280;5998;42.676;23.268;2022-07-24T07:31:39;94856.50;;;31.24;54.28
11878;BME280;5998;42.676;23.268;2022-07-24T07:34:06;94864.00;;;31.41;53.83
11878;BME280;5998;42.676;23.268;2022-07-24T07:36:32;94851.56;;;31.75;54.02
11878;BME280;5998;42.676;23.268;2022-07-24T07:39:01;94854.53;;;31.72;52.13
11878;BME280;5998;42.676;23.268;2022-07-24T07:41:28;94845.91;;;32.23;52.09
11878;BME280;5998;42.676;23.268;2022-07-24T07:43:55;94848.31;;;32.30;50.71
11878;BME280;5998;42.676;23.268;2022-07-24T07:46:24;94842.38;;;31.98;51.63
11878;BME280;5998;42.676;23.268;2022-07-24T07:48:52;94845.34;;;31.95;50.30
11878;BME280;5998;42.676;23.268;2022-07-24T07:51:19;94816.59;;;31.27;49.20
11878;BME280;5998;42.676;23.268;2022-07-24T07:53:46;94842.72;;;31.29;51.32
11878;BME280;5998;42.676;23.268;2022-07-24T07:56:15;94844.09;;;31.58;50.60
11878;BME280;5998;42.676;23.268;2022-07-24T07:58:42;94856.47;;;31.80;49.69
11878;BME280;5998;42.676;23.268;2022-07-24T08:01:09;94863.16;;;31.97;47.91
11878;BME280;5998;42.676;23.268;2022-07-24T08:03:36;94858.00;;;31.81;49.98
11878;BME280;5998;42.676;23.268;2022-07-24T08:06:03;94859.72;;;32.17;48.16
11878;BME280;5998;42.676;23.268;2022-07-24T08:08:30;94856.88;;;32.41;49.80
11878;BME280;5998;42.676;23.268;2022-07-24T08:10:57;94850.06;;;32.71;47.33
11878;BME280;5998;42.676;23.268;2022-07-24T08:13:25;94854.94;;;33.05;46.24
11878;BME280;5998;42.676;23.268;2022-07-24T08:15:52;94845.78;;;33.05;44.55
11878;BME280;5998;42.676;23.268;2022-07-24T08:18:19;94825.84;;;32.62;45.96
11878;BME280;5998;42.676;23.268;2022-07-24T08:20:46;94830.84;;;32.73;46.32
11878;BME280;5998;42.676;23.268;2022-07-24T08:23:13;94820.22;;;32.92;44.32
11878;BME280;5998;42.676;23.268;2022-07-24T08:25:40;94852.28;;;33.31;43.52
11878;BME280;5998;42.676;23.268;2022-07-24T08:28:07;94851.47;;;32.96;45.36
11878;BME280;5998;42.676;23.268;2022-07-24T08:30:35;94838.41;;;32.87;45.02
11878;BME280;5998;42.676;23.268;2022-07-24T08:33:02;94860.16;;;33.33;47.35
11878;BME280;5998;42.676;23.268;2022-07-24T08:35:29;94858.34;;;33.30;45.27
11878;BME280;5998;42.676;23.268;2022-07-24T08:37:55;94858.09;;;33.48;46.45
11878;BME280;5998;42.676;23.268;2022-07-24T08:40:23;94851.91;;;33.58;46.65
11878;BME280;5998;42.676;23.268;2022-07-24T08:42:49;94836.19;;;33.61;46.25
11878;BME280;5998;42.676;23.268;2022-07-24T08:45:16;94848.63;;;33.60;44.07
11878;BME280;5998;42.676;23.268;2022-07-24T08:47:45;94845.81;;;33.40;44.30
11878;BME280;5998;42.676;23.268;2022-07-24T08:50:12;94839.91;;;33.38;45.78
11878;BME280;5998;42.676;23.268;2022-07-24T08:52:39;94839.38;;;33.34;46.21
11878;BME280;5998;42.676;23.268;2022-07-24T08:55:06;94841.66;;;32.86;46.05
11878;BME280;5998;42.676;23.268;2022-07-24T08:57:33;94831.47;;;33.12;49.09
11878;BME280;5998;42.676;23.268;2022-07-24T09:00:00;94843.94;;;33.16;46.54
11878;BME280;5998;42.676;23.268;2022-07-24T09:02:27;94839.38;;;33.34;46.94
11878;BME280;5998;42.676;23.268;2022-07-24T09:04:59;94841.25;;;33.42;46.62
11878;BME280;5998;42.676;23.268;2022-07-24T09:07:28;94844.53;;;33.41;46.97
11878;BME280;5998;42.676;23.268;2022-07-24T09:10:00;94834.59;;;33.74;45.19
11878;BME280;5998;42.676;23.268;2022-07-24T09:12:30;94837.50;;;33.86;43.79
11878;BME280;5998;42.676;23.268;2022-07-24T09:14:59;94838.03;;;33.84;43.89
11878;BME280;5998;42.676;23.268;2022-07-24T09:17:26;94828.16;;;34.34;46.79
11878;BME280;5998;42.676;23.268;2022-07-24T09:19:57;94834.97;;;34.85;44.55
11878;BME280;5998;42.676;23.268;2022-07-24T09:22:31;94835.34;;;35.35;43.95
11878;BME280;5998;42.676;23.268;2022-07-24T09:25:08;94830.22;;;35.76;43.41
11878;BME280;5998;42.676;23.268;2022-07-24T09:27:36;94812.97;;;35.99;44.74
11878;BME280;5998;42.676;23.268;2022-07-24T09:30:05;94832.22;;;36.51;42.54
11878;BME280;5998;42.676;23.268;2022-07-24T09:32:32;94834.31;;;36.78;41.08
11878;BME280;5998;42.676;23.268;2022-07-24T09:35:00;94835.34;;;36.86;41.31
11878;BME280;5998;42.676;23.268;2022-07-24T09:37:28;94816.69;;;36.94;39.00
11878;BME280;5998;42.676;23.268;2022-07-24T09:40:07;94841.44;;;37.18;37.43
11878;BME280;5998;42.676;23.268;2022-07-24T09:42:34;94805.72;;;36.80;38.57
11878;BME280;5998;42.676;23.268;2022-07-24T09:45:06;94830.47;;;37.14;36.56
11878;BME280;5998;42.676;23.268;2022-07-24T09:47:36;94819.22;;;36.87;36.11
11878;BME280;5998;42.676;23.268;2022-07-24T09:50:21;94824.13;;;37.03;38.50
11878;BME280;5998;42.676;23.268;2022-07-24T09:52:56;94826.38;;;36.88;38.45
11878;BME280;5998;42.676;23.268;2022-07-24T09:55:24;94821.25;;;36.36;36.99
11878;BME280;5998;42.676;23.268;2022-07-24T09:57:52;94824.78;;;36.20;35.68
11878;BME280;5998;42.676;23.268;2022-07-24T10:00:19;94819.16;;;36.09;37.50
11878;BME280;5998;42.676;23.268;2022-07-24T10:02:47;94813.03;;;36.22;37.47
11878;BME280;5998;42.676;23.268;2022-07-24T10:05:16;94813.13;;;36.66;37.21
11878;BME280;5998;42.676;23.268;2022-07-24T10:07:47;94814.91;;;36.69;33.93
11878;BME280;5998;42.676;23.268;2022-07-24T10:10:17;94818.22;;;36.73;36.96
11878;BME280;5998;42.676;23.268;2022-07-24T10:12:45;94804.94;;;36.90;36.11
11878;BME280;5998;42.676;23.268;2022-07-24T10:15:13;94801.13;;;37.10;36.36
11878;BME280;5998;42.676;23.268;2022-07-24T10:18:05;94802.34;;;37.31;35.50
11878;BME280;5998;42.676;23.268;2022-07-24T10:20:39;94800.56;;;37.22;35.27
11878;BME280;5998;42.676;23.268;2022-07-24T10:23:07;94776.41;;;36.97;34.67
11878;BME280;5998;42.676;23.268;2022-07-24T10:25:51;94803.63;;;37.36;35.61
11878;BME280;5998;42.676;23.268;2022-07-24T10:28:36;94785.03;;;37.10;33.20
11878;BME280;5998;42.676;23.268;2022-07-24T10:31:08;94802.31;;;37.53;34.23
11878;BME280;5998;42.676;23.268;2022-07-24T10:33:36;94800.16;;;37.81;34.79
11878;BME280;5998;42.676;23.268;2022-07-24T10:36:12;94795.72;;;38.03;32.87
11878;BME280;5998;42.676;23.268;2022-07-24T10:38:42;94783.75;;;37.86;31.87
11878;BME280;5998;42.676;23.268;2022-07-24T10:41:15;94787.03;;;37.27;31.81
11878;BME280;5998;42.676;23.268;2022-07-24T10:44:12;94785.75;;;37.44;32.15
11878;BME280;5998;42.676;23.268;2022-07-24T10:46:59;94785.22;;;37.40;32.29
11878;BME280;5998;42.676;23.268;2022-07-24T10:49:49;94785.34;;;37.75;32.33
11878;BME280;5998;42.676;23.268;2022-07-24T10:52:25;94785.50;;;38.00;31.15
11878;BME280;5998;42.676;23.268;2022-07-24T10:55:19;94775.50;;;38.10;30.23
11878;BME280;5998;42.676;23.268;2022-07-24T10:57:53;94772.72;;;38.45;32.05
11878;BME280;5998;42.676;23.268;2022-07-24T11:00:22;94774.16;;;38.57;29.97
11878;BME280;5998;42.676;23.268;2022-07-24T11:02:56;94772.25;;;38.71;29.55
11878;BME280;5998;42.676;23.268;2022-07-24T11:05:25;94770.13;;;38.82;30.17
11878;BME280;5998;42.676;23.268;2022-07-24T11:08:26;94756.47;;;38.92;31.01
11878;BME280;5998;42.676;23.268;2022-07-24T11:10:58;94768.03;;;38.88;30.46
11878;BME280;5998;42.676;23.268;2022-07-24T11:13:49;94755.75;;;38.56;30.45
11878;BME280;5998;42.676;23.268;2022-07-24T11:16:30;94754.41;;;38.27;30.33
11878;BME280;5998;42.676;23.268;2022-07-24T11:19:24;94756.25;;;38.19;30.81
11878;BME280;5998;42.676;23.268;2022-07-24T11:22:02;94750.75;;;37.97;31.09
11878;BME280;5998;42.676;23.268;2022-07-24T11:24:29;94745.75;;;37.79;33.18
11878;BME280;5998;42.676;23.268;2022-07-24T11:26:57;94757.44;;;37.94;31.65
11878;BME280;5998;42.676;23.268;2022-07-24T11:29:27;94747.13;;;37.50;32.61
11878;BME280;5998;42.676;23.268;2022-07-24T11:31:57;94751.25;;;37.49;31.34
11878;BME280;5998;42.676;23.268;2022-07-24T11:34:25;94748.19;;;37.47;33.23
11878;BME280;5998;42.676;23.268;2022-07-24T11:36:53;94744.13;;;37.43;32.98
11878;BME280;5998;42.676;23.268;2022-07-24T11:39:26;94745.72;;;37.16;32.42
11878;BME280;5998;42.676;23.268;2022-07-24T11:41:55;94741.19;;;36.68;32.18
11878;BME280;5998;42.676;23.268;2022-07-24T11:44:25;94745.25;;;36.51;32.98
11878;BME280;5998;42.676;23.268;2022-07-24T11:46:54;94714.59;;;35.97;32.38
11878;BME280;5998;42.676;23.268;2022-07-24T11:49:22;94745.81;;;35.51;33.54
11878;BME280;5998;42.676;23.268;2022-07-24T11:51:51;94745.09;;;35.14;34.00
11878;BME280;5998;42.676;23.268;2022-07-24T11:54:21;94750.00;;;34.82;34.47
11878;BME280;5998;42.676;23.268;2022-07-24T11:56:48;94741.88;;;34.84;35.01
11878;BME280;5998;42.676;23.268;2022-07-24T11:59:25;94740.94;;;34.62;35.02
11878;BME280;5998;42.676;23.268;2022-07-24T12:01:56;94733.06;;;34.60;34.94
11878;BME280;5998;42.676;23.268;2022-07-24T12:04:29;94741.59;;;34.51;35.12
11878;BME280;5998;42.676;23.268;2022-07-24T12:06:55;94736.91;;;34.37;35.95
11878;BME280;5998;42.676;23.268;2022-07-24T12:09:22;94742.72;;;34.59;35.33
11878;BME280;5998;42.676;23.268;2022-07-24T12:11:49;94733.44;;;35.16;36.19
11878;BME280;5998;42.676;23.268;2022-07-24T12:14:19;94718.50;;;35.46;34.27
11878;BME280;5998;42.676;23.268;2022-07-24T12:16:53;94720.41;;;35.72;34.98
11878;BME280;5998;42.676;23.268;2022-07-24T12:19:22;94724.84;;;36.23;35.51
11878;BME280;5998;42.676;23.268;2022-07-24T12:21:51;94717.69;;;36.77;33.98
11878;BME280;5998;42.676;23.268;2022-07-24T12:24:19;94713.03;;;37.13;31.38
11878;BME280;5998;42.676;23.268;2022-07-24T12:26:51;94713.25;;;37.26;32.18
11878;BME280;5998;42.676;23.268;2022-07-24T12:29:18;94701.41;;;37.50;32.09
11878;BME280;5998;42.676;23.268;2022-07-24T12:31:46;94703.81;;;37.81;32.80
11878;BME280;5998;42.676;23.268;2022-07-24T12:34:14;94704.19;;;38.07;33.42
11878;BME280;5998;42.676;23.268;2022-07-24T12:36:41;94665.75;;;37.74;32.48
11878;BME280;5998;42.676;23.268;2022-07-24T12:39:11;94693.88;;;37.74;33.18
11878;BME280;5998;42.676;23.268;2022-07-24T12:41:45;94698.56;;;38.07;33.09
11878;BME280;5998;42.676;23.268;2022-07-24T12:44:13;94698.78;;;38.45;32.89
11878;BME280;5998;42.676;23.268;2022-07-24T12:46:41;94685.75;;;38.71;31.63
11878;BME280;5998;42.676;23.268;2022-07-24T12:49:10;94690.59;;;39.01;30.53
11878;BME280;5998;42.676;23.268;2022-07-24T12:51:46;94681.84;;;39.04;30.92
11878;BME280;5998;42.676;23.268;2022-07-24T12:54:18;94653.25;;;39.19;30.92
11878;BME280;5998;42.676;23.268;2022-07-24T12:56:46;94671.94;;;39.59;29.61
11878;BME280;5998;42.676;23.268;2022-07-24T12:59:25;94675.97;;;39.69;29.32
11878;BME280;5998;42.676;23.268;2022-07-24T13:01:53;94668.25;;;39.88;29.43
11878;BME280;5998;42.676;23.268;2022-07-24T13:04:21;94663.75;;;39.80;28.92
11878;BME280;5998;42.676;23.268;2022-07-24T13:06:52;94644.78;;;39.19;28.79